sensor_id;sensor_type;location;lat;lon;timestamp;P1;durP1;ratioP1;P2;durP2;ratioP2
53718;SDS011;39616;48.872;9.390;2023-01-01T00:01:25;51.42;;;27.88;;
53718;SDS011;39616;48.872;9.390;2023-01-01T00:03:57;35.67;;;21.35;;
53718;SDS011;39616;48.872;9.390;2023-01-01T00:06:28;28.75;;;16.00;;
53718;SDS011;39616;48.872;9.390;2023-01-01T00:08:59;27.20;;;15.90;;
53718;SDS011;39616;48.872;9.390;2023-01-01T00:11:48;25.95;;;15.10;;
53718;SDS011;39616;48.872;9.390;2023-01-01T00:14:18;24.55;;;14.73;;
53718;SDS011;39616;48.872;9.390;2023-01-01T00:16:48;24.65;;;14.80;;
53718;SDS011;39616;48.872;9.390;2023-01-01T00:19:19;25.95;;;14.27;;
53718;SDS011;39616;48.872;9.390;2023-01-01T00:21:49;22.42;;;13.00;;
53718;SDS011;39616;48.872;9.390;2023-01-01T00:24:19;21.88;;;13.20;;
53718;SDS011;39616;48.872;9.390;2023-01-01T00:26:50;23.35;;;12.80;;
53718;SDS011;39616;48.872;9.390;2023-01-01T00:29:20;21.63;;;12.73;;
53718;SDS011;39616;48.872;9.390;2023-01-01T00:31:50;19.95;;;11.82;;
53718;SDS011;39616;48.872;9.390;2023-01-01T00:34:20;22.45;;;12.73;;
53718;SDS011;39616;48.872;9.390;2023-01-01T00:36:51;18.92;;;11.95;;
53718;SDS011;39616;48.872;9.390;2023-01-01T00:39:21;20.98;;;12.25;;
53718;SDS011;39616;48.872;9.390;2023-01-01T00:41:51;14.80;;;10.60;;
53718;SDS011;39616;48.872;9.390;2023-01-01T00:44:21;17.05;;;10.00;;
53718;SDS011;39616;48.872;9.390;2023-01-01T00:46:52;21.65;;;11.85;;
53718;SDS011;39616;48.872;9.390;2023-01-01T00:49:22;17.65;;;10.50;;
53718;SDS011;39616;48.872;9.390;2023-01-01T00:51:52;15.90;;;9.18;;
53718;SDS011;39616;48.872;9.390;2023-01-01T00:54:23;15.00;;;8.80;;
53718;SDS011;39616;48.872;9.390;2023-01-01T00:56:53;15.32;;;9.45;;
53718;SDS011;39616;48.872;9.390;2023-01-01T00:59:24;14.68;;;7.85;;
53718;SDS011;39616;48.872;9.390;2023-01-01T01:01:54;11.63;;;7.18;;
53718;SDS011;39616;48.872;9.390;2023-01-01T01:04:25;13.52;;;7.60;;
53718;SDS011;39616;48.872;9.390;2023-01-01T01:06:55;13.43;;;6.88;;
53718;SDS011;39616;48.872;9.390;2023-01-01T01:09:25;13.20;;;6.20;;
53718;SDS011;39616;48.872;9.390;2023-01-01T01:11:56;7.45;;;5.13;;
53718;SDS011;39616;48.872;9.390;2023-01-01T01:14:26;10.25;;;5.50;;
53718;SDS011;39616;48.872;9.390;2023-01-01T01:16:56;10.48;;;6.38;;
53718;SDS011;39616;48.872;9.390;2023-01-01T01:19:27;9.93;;;5.05;;
53718;SDS011;39616;48.872;9.390;2023-01-01T01:21:57;10.15;;;5.53;;
53718;SDS011;39616;48.872;9.390;2023-01-01T01:24:27;8.25;;;5.55;;
53718;SDS011;39616;48.872;9.390;2023-01-01T01:26:58;11.93;;;6.22;;
53718;SDS011;39616;48.872;9.390;2023-01-01T01:29:28;13.82;;;5.18;;
53718;SDS011;39616;48.872;9.390;2023-01-01T01:31:58;8.98;;;4.40;;
53718;SDS011;39616;48.872;9.390;2023-01-01T01:34:29;9.25;;;5.97;;
53718;SDS011;39616;48.872;9.390;2023-01-01T01:36:59;12.00;;;5.05;;
53718;SDS011;39616;48.872;9.390;2023-01-01T01:39:29;8.88;;;5.65;;
53718;SDS011;39616;48.872;9.390;2023-01-01T01:42:00;9.52;;;5.53;;
53718;SDS011;39616;48.872;9.390;2023-01-01T01:50:22;12.38;;;6.50;;
53718;SDS011;39616;48.872;9.390;2023-01-01T01:53:20;11.23;;;6.18;;
53718;SDS011;39616;48.872;9.390;2023-01-01T01:55:55;9.43;;;6.53;;
53718;SDS011;39616;48.872;9.390;2023-01-01T01:58:29;11.45;;;6.38;;
53718;SDS011;39616;48.872;9.390;2023-01-01T02:01:01;11.90;;;6.57;;
53718;SDS011;39616;48.872;9.390;2023-01-01T02:03:41;13.60;;;7.50;;
53718;SDS011;39616;48.872;9.390;2023-01-01T02:06:18;15.32;;;7.68;;
53718;SDS011;39616;48.872;9.390;2023-01-01T02:08:49;14.15;;;8.00;;
53718;SDS011;39616;48.872;9.390;2023-01-01T02:11:20;15.80;;;8.35;;
53718;SDS011;39616;48.872;9.390;2023-01-01T02:13:50;15.00;;;7.25;;
53718;SDS011;39616;48.872;9.390;2023-01-01T02:16:35;14.70;;;8.13;;
53718;SDS011;39616;48.872;9.390;2023-01-01T02:21:58;16.80;;;9.45;;
53718;SDS011;39616;48.872;9.390;2023-01-01T02:24:41;15.68;;;8.80;;
53718;SDS011;39616;48.872;9.390;2023-01-01T02:30:09;16.05;;;9.63;;
53718;SDS011;39616;48.872;9.390;2023-01-01T02:32:42;17.00;;;9.10;;
53718;SDS011;39616;48.872;9.390;2023-01-01T02:35:19;16.20;;;8.52;;
53718;SDS011;39616;48.872;9.390;2023-01-01T02:38:30;14.55;;;8.35;;
53718;SDS011;39616;48.872;9.390;2023-01-01T02:41:05;15.50;;;8.50;;
53718;SDS011;39616;48.872;9.390;2023-01-01T02:43:40;19.15;;;9.55;;
53718;SDS011;39616;48.872;9.390;2023-01-01T02:46:11;12.50;;;6.13;;
53718;SDS011;39616;48.872;9.390;2023-01-01T02:48:45;9.02;;;5.10;;
53718;SDS011;39616;48.872;9.390;2023-01-01T02:57:18;10.63;;;5.72;;
53718;SDS011;39616;48.872;9.390;2023-01-01T03:00:04;12.32;;;5.10;;
53718;SDS011;39616;48.872;9.390;2023-01-01T03:05:52;10.23;;;5.45;;
53718;SDS011;39616;48.872;9.390;2023-01-01T03:14:50;12.40;;;5.30;;
53718;SDS011;39616;48.872;9.390;2023-01-01T03:17:29;14.88;;;5.75;;
53718;SDS011;39616;48.872;9.390;2023-01-01T03:20:05;7.93;;;5.03;;
53718;SDS011;39616;48.872;9.390;2023-01-01T03:22:41;10.80;;;5.50;;
53718;SDS011;39616;48.872;9.390;2023-01-01T03:25:15;7.13;;;4.68;;
53718;SDS011;39616;48.872;9.390;2023-01-01T03:27:51;10.73;;;4.18;;
53718;SDS011;39616;48.872;9.390;2023-01-01T03:30:28;7.28;;;3.85;;
53718;SDS011;39616;48.872;9.390;2023-01-01T03:33:03;7.88;;;3.80;;
53718;SDS011;39616;48.872;9.390;2023-01-01T03:35:51;5.85;;;3.15;;
53718;SDS011;39616;48.872;9.390;2023-01-01T03:38:44;7.18;;;3.25;;
53718;SDS011;39616;48.872;9.390;2023-01-01T03:41:54;8.07;;;3.50;;
53718;SDS011;39616;48.872;9.390;2023-01-01T03:44:32;5.85;;;3.08;;
53718;SDS011;39616;48.872;9.390;2023-01-01T03:47:07;8.25;;;3.35;;
53718;SDS011;39616;48.872;9.390;2023-01-01T03:49:37;6.07;;;3.03;;
53718;SDS011;39616;48.872;9.390;2023-01-01T03:52:17;5.50;;;2.30;;
53718;SDS011;39616;48.872;9.390;2023-01-01T04:00:18;6.22;;;2.25;;
53718;SDS011;39616;48.872;9.390;2023-01-01T04:05:29;4.07;;;2.72;;
53718;SDS011;39616;48.872;9.390;2023-01-01T04:08:01;5.97;;;2.22;;
53718;SDS011;39616;48.872;9.390;2023-01-01T04:10:34;5.50;;;2.60;;
53718;SDS011;39616;48.872;9.390;2023-01-01T04:13:08;6.05;;;2.75;;
53718;SDS011;39616;48.872;9.390;2023-01-01T04:15:39;6.97;;;2.88;;
53718;SDS011;39616;48.872;9.390;2023-01-01T04:18:09;5.20;;;2.47;;
53718;SDS011;39616;48.872;9.390;2023-01-01T04:20:39;5.72;;;2.30;;
53718;SDS011;39616;48.872;9.390;2023-01-01T04:23:10;5.88;;;2.35;;
53718;SDS011;39616;48.872;9.390;2023-01-01T04:25:40;3.10;;;2.00;;
53718;SDS011;39616;48.872;9.390;2023-01-01T04:28:10;5.07;;;2.17;;
53718;SDS011;39616;48.872;9.390;2023-01-01T04:30:40;4.00;;;2.67;;
53718;SDS011;39616;48.872;9.390;2023-01-01T04:33:11;4.38;;;2.30;;
53718;SDS011;39616;48.872;9.390;2023-01-01T04:35:41;4.25;;;2.67;;
53718;SDS011;39616;48.872;9.390;2023-01-01T04:38:14;4.18;;;2.17;;
53718;SDS011;39616;48.872;9.390;2023-01-01T04:40:44;4.28;;;2.13;;
53718;SDS011;39616;48.872;9.390;2023-01-01T04:43:14;4.85;;;2.35;;
53718;SDS011;39616;48.872;9.390;2023-01-01T04:45:53;4.90;;;2.30;;
53718;SDS011;39616;48.872;9.390;2023-01-01T04:48:24;4.60;;;2.45;;
53718;SDS011;39616;48.872;9.390;2023-01-01T04:50:57;8.13;;;4.13;;
53718;SDS011;39616;48.872;9.390;2023-01-01T04:53:30;5.60;;;1.92;;
53718;SDS011;39616;48.872;9.390;2023-01-01T04:56:05;3.80;;;2.30;;
53718;SDS011;39616;48.872;9.390;2023-01-01T04:58:41;6.72;;;2.70;;
53718;SDS011;39616;48.872;9.390;2023-01-01T05:01:17;3.17;;;2.08;;
53718;SDS011;39616;48.872;9.390;2023-01-01T05:03:50;4.55;;;2.33;;
53718;SDS011;39616;48.872;9.390;2023-01-01T05:06:21;3.80;;;1.90;;
53718;SDS011;39616;48.872;9.390;2023-01-01T05:08:52;4.28;;;2.75;;
53718;SDS011;39616;48.872;9.390;2023-01-01T05:11:27;7.72;;;2.20;;
53718;SDS011;39616;48.872;9.390;2023-01-01T05:13:58;3.80;;;1.95;;
53718;SDS011;39616;48.872;9.390;2023-01-01T05:16:31;2.47;;;2.17;;
53718;SDS011;39616;48.872;9.390;2023-01-01T05:19:06;4.95;;;2.42;;
53718;SDS011;39616;48.872;9.390;2023-01-01T05:21:38;3.72;;;1.80;;
53718;SDS011;39616;48.872;9.390;2023-01-01T05:24:09;4.70;;;2.25;;
53718;SDS011;39616;48.872;9.390;2023-01-01T05:26:41;5.28;;;2.38;;
53718;SDS011;39616;48.872;9.390;2023-01-01T05:29:13;6.13;;;2.38;;
53718;SDS011;39616;48.872;9.390;2023-01-01T05:31:44;5.22;;;2.40;;
53718;SDS011;39616;48.872;9.390;2023-01-01T05:34:15;3.70;;;2.10;;
53718;SDS011;39616;48.872;9.390;2023-01-01T05:36:45;4.35;;;2.05;;
53718;SDS011;39616;48.872;9.390;2023-01-01T05:39:15;5.03;;;2.25;;
53718;SDS011;39616;48.872;9.390;2023-01-01T05:41:45;3.75;;;2.03;;
53718;SDS011;39616;48.872;9.390;2023-01-01T05:44:16;5.28;;;1.88;;
53718;SDS011;39616;48.872;9.390;2023-01-01T05:46:48;3.53;;;2.15;;
53718;SDS011;39616;48.872;9.390;2023-01-01T05:49:18;5.68;;;2.55;;
53718;SDS011;39616;48.872;9.390;2023-01-01T05:51:48;3.03;;;1.67;;
53718;SDS011;39616;48.872;9.390;2023-01-01T05:54:19;3.28;;;1.42;;
53718;SDS011;39616;48.872;9.390;2023-01-01T05:56:49;6.50;;;2.17;;
53718;SDS011;39616;48.872;9.390;2023-01-01T05:59:19;3.15;;;1.63;;
53718;SDS011;39616;48.872;9.390;2023-01-01T06:01:49;5.28;;;2.00;;
53718;SDS011;39616;48.872;9.390;2023-01-01T06:04:20;2.53;;;1.42;;
53718;SDS011;39616;48.872;9.390;2023-01-01T06:06:50;2.78;;;1.83;;
53718;SDS011;39616;48.872;9.390;2023-01-01T06:09:20;2.65;;;1.60;;
53718;SDS011;39616;48.872;9.390;2023-01-01T06:11:51;3.95;;;1.40;;
53718;SDS011;39616;48.872;9.390;2023-01-01T06:14:21;5.13;;;1.98;;
53718;SDS011;39616;48.872;9.390;2023-01-01T06:16:51;3.83;;;1.48;;
53718;SDS011;39616;48.872;9.390;2023-01-01T06:19:21;4.10;;;1.73;;
53718;SDS011;39616;48.872;9.390;2023-01-01T06:21:52;3.75;;;1.58;;
53718;SDS011;39616;48.872;9.390;2023-01-01T06:24:22;2.78;;;1.40;;
53718;SDS011;39616;48.872;9.390;2023-01-01T06:26:52;2.35;;;1.33;;
53718;SDS011;39616;48.872;9.390;2023-01-01T06:29:23;2.95;;;1.33;;
53718;SDS011;39616;48.872;9.390;2023-01-01T06:31:53;2.08;;;1.40;;
53718;SDS011;39616;48.872;9.390;2023-01-01T06:34:23;4.05;;;1.58;;
53718;SDS011;39616;48.872;9.390;2023-01-01T06:36:54;2.83;;;1.58;;
53718;SDS011;39616;48.872;9.390;2023-01-01T06:39:24;2.33;;;1.55;;
53718;SDS011;39616;48.872;9.390;2023-01-01T06:41:54;4.47;;;1.42;;
53718;SDS011;39616;48.872;9.390;2023-01-01T06:44:24;55.63;;;26.38;;
53718;SDS011;39616;48.872;9.390;2023-01-01T06:46:55;46.13;;;19.02;;
53718;SDS011;39616;48.872;9.390;2023-01-01T06:49:25;9.95;;;5.18;;
53718;SDS011;39616;48.872;9.390;2023-01-01T06:51:55;14.25;;;7.82;;
53718;SDS011;39616;48.872;9.390;2023-01-01T06:54:26;22.13;;;11.20;;
53718;SDS011;39616;48.872;9.390;2023-01-01T06:56:56;6.53;;;4.07;;
53718;SDS011;39616;48.872;9.390;2023-01-01T06:59:26;8.90;;;3.13;;
53718;SDS011;39616;48.872;9.390;2023-01-01T07:01:57;2.65;;;1.60;;
53718;SDS011;39616;48.872;9.390;2023-01-01T07:04:27;5.85;;;2.33;;
53718;SDS011;39616;48.872;9.390;2023-01-01T07:06:57;4.47;;;2.70;;
53718;SDS011;39616;48.872;9.390;2023-01-01T07:09:30;3.60;;;2.33;;
53718;SDS011;39616;48.872;9.390;2023-01-01T07:12:00;3.70;;;1.95;;
53718;SDS011;39616;48.872;9.390;2023-01-01T07:14:30;5.00;;;1.73;;
53718;SDS011;39616;48.872;9.390;2023-01-01T07:17:01;2.22;;;1.48;;
53718;SDS011;39616;48.872;9.390;2023-01-01T07:19:31;3.63;;;1.60;;
53718;SDS011;39616;48.872;9.390;2023-01-01T07:22:01;5.15;;;1.70;;
53718;SDS011;39616;48.872;9.390;2023-01-01T07:24:32;7.85;;;1.85;;
53718;SDS011;39616;48.872;9.390;2023-01-01T07:27:02;3.33;;;1.30;;
53718;SDS011;39616;48.872;9.390;2023-01-01T07:29:32;4.32;;;1.33;;
53718;SDS011;39616;48.872;9.390;2023-01-01T07:32:03;2.78;;;1.35;;
53718;SDS011;39616;48.872;9.390;2023-01-01T07:34:33;4.43;;;1.48;;
53718;SDS011;39616;48.872;9.390;2023-01-01T07:37:03;3.20;;;1.63;;
53718;SDS011;39616;48.872;9.390;2023-01-01T07:39:34;3.85;;;1.88;;
53718;SDS011;39616;48.872;9.390;2023-01-01T07:42:04;4.88;;;1.45;;
53718;SDS011;39616;48.872;9.390;2023-01-01T07:44:34;3.60;;;1.30;;
53718;SDS011;39616;48.872;9.390;2023-01-01T07:47:04;4.20;;;1.40;;
53718;SDS011;39616;48.872;9.390;2023-01-01T07:49:47;3.72;;;1.40;;
53718;SDS011;39616;48.872;9.390;2023-01-01T07:52:18;4.75;;;1.23;;
53718;SDS011;39616;48.872;9.390;2023-01-01T07:54:48;1.75;;;1.15;;
53718;SDS011;39616;48.872;9.390;2023-01-01T07:57:19;2.88;;;1.05;;
53718;SDS011;39616;48.872;9.390;2023-01-01T07:59:49;3.33;;;1.15;;
53718;SDS011;39616;48.872;9.390;2023-01-01T08:02:19;2.58;;;1.05;;
53718;SDS011;39616;48.872;9.390;2023-01-01T08:04:49;5.28;;;1.38;;
53718;SDS011;39616;48.872;9.390;2023-01-01T08:07:20;2.03;;;1.23;;
53718;SDS011;39616;48.872;9.390;2023-01-01T08:09:50;3.42;;;1.10;;
53718;SDS011;39616;48.872;9.390;2023-01-01T08:12:20;2.05;;;1.13;;
53718;SDS011;39616;48.872;9.390;2023-01-01T08:14:51;2.35;;;1.27;;
53718;SDS011;39616;48.872;9.390;2023-01-01T08:17:21;1.70;;;1.00;;
53718;SDS011;39616;48.872;9.390;2023-01-01T08:19:51;2.20;;;1.00;;
53718;SDS011;39616;48.872;9.390;2023-01-01T08:22:22;1.45;;;1.13;;
53718;SDS011;39616;48.872;9.390;2023-01-01T08:24:52;2.65;;;1.85;;
53718;SDS011;39616;48.872;9.390;2023-01-01T08:27:22;2.35;;;1.10;;
53718;SDS011;39616;48.872;9.390;2023-01-01T08:29:52;2.33;;;1.00;;
53718;SDS011;39616;48.872;9.390;2023-01-01T08:32:23;2.78;;;1.10;;
53718;SDS011;39616;48.872;9.390;2023-01-01T08:34:53;3.47;;;1.45;;
53718;SDS011;39616;48.872;9.390;2023-01-01T08:37:23;2.95;;;1.17;;
53718;SDS011;39616;48.872;9.390;2023-01-01T08:39:53;2.25;;;1.17;;
53718;SDS011;39616;48.872;9.390;2023-01-01T08:42:24;3.42;;;1.42;;
53718;SDS011;39616;48.872;9.390;2023-01-01T08:44:54;5.90;;;1.48;;
53718;SDS011;39616;48.872;9.390;2023-01-01T08:47:25;4.63;;;1.33;;
53718;SDS011;39616;48.872;9.390;2023-01-01T08:49:55;6.57;;;1.40;;
53718;SDS011;39616;48.872;9.390;2023-01-01T08:52:26;3.05;;;1.55;;
53718;SDS011;39616;48.872;9.390;2023-01-01T08:54:58;5.60;;;1.30;;
53718;SDS011;39616;48.872;9.390;2023-01-01T08:57:30;2.00;;;1.00;;
53718;SDS011;39616;48.872;9.390;2023-01-01T09:00:00;1.58;;;1.10;;
53718;SDS011;39616;48.872;9.390;2023-01-01T09:02:30;3.30;;;1.35;;
53718;SDS011;39616;48.872;9.390;2023-01-01T09:05:01;2.17;;;1.13;;
53718;SDS011;39616;48.872;9.390;2023-01-01T09:07:31;3.83;;;1.00;;
53718;SDS011;39616;48.872;9.390;2023-01-01T09:10:01;3.42;;;1.30;;
53718;SDS011;39616;48.872;9.390;2023-01-01T09:12:32;6.22;;;1.15;;
53718;SDS011;39616;48.872;9.390;2023-01-01T09:15:02;4.20;;;1.70;;
53718;SDS011;39616;48.872;9.390;2023-01-01T09:17:33;2.85;;;1.08;;
53718;SDS011;39616;48.872;9.390;2023-01-01T09:20:03;6.13;;;1.35;;
53718;SDS011;39616;48.872;9.390;2023-01-01T09:22:34;4.63;;;1.10;;
53718;SDS011;39616;48.872;9.390;2023-01-01T09:25:04;1.83;;;1.45;;
53718;SDS011;39616;48.872;9.390;2023-01-01T09:27:35;3.78;;;1.27;;
53718;SDS011;39616;48.872;9.390;2023-01-01T09:30:05;3.97;;;1.58;;
53718;SDS011;39616;48.872;9.390;2023-01-01T09:32:36;1.85;;;1.08;;
53718;SDS011;39616;48.872;9.390;2023-01-01T09:35:06;2.40;;;0.93;;
53718;SDS011;39616;48.872;9.390;2023-01-01T09:37:37;1.95;;;1.08;;
53718;SDS011;39616;48.872;9.390;2023-01-01T09:40:09;1.30;;;1.00;;
53718;SDS011;39616;48.872;9.390;2023-01-01T09:45:58;1.50;;;1.10;;
53718;SDS011;39616;48.872;9.390;2023-01-01T09:48:30;4.63;;;0.95;;
53718;SDS011;39616;48.872;9.390;2023-01-01T09:51:03;24.65;;;12.55;;
53718;SDS011;39616;48.872;9.390;2023-01-01T09:53:40;8.82;;;7.18;;
53718;SDS011;39616;48.872;9.390;2023-01-01T09:56:29;14.05;;;12.13;;
53718;SDS011;39616;48.872;9.390;2023-01-01T09:59:00;7.68;;;5.50;;
53718;SDS011;39616;48.872;9.390;2023-01-01T10:07:13;7.60;;;5.15;;
53718;SDS011;39616;48.872;9.390;2023-01-01T10:15:15;23.40;;;18.10;;
53718;SDS011;39616;48.872;9.390;2023-01-01T10:17:50;6.22;;;4.75;;
53718;SDS011;39616;48.872;9.390;2023-01-01T10:20:36;10.18;;;7.22;;
53718;SDS011;39616;48.872;9.390;2023-01-01T10:23:23;8.10;;;2.35;;
53718;SDS011;39616;48.872;9.390;2023-01-01T10:25:57;13.05;;;10.68;;
53718;SDS011;39616;48.872;9.390;2023-01-01T10:28:41;14.82;;;8.77;;
53718;SDS011;39616;48.872;9.390;2023-01-01T10:31:20;18.70;;;15.82;;
53718;SDS011;39616;48.872;9.390;2023-01-01T10:33:58;8.02;;;4.10;;
53718;SDS011;39616;48.872;9.390;2023-01-01T10:36:35;11.93;;;7.40;;
53718;SDS011;39616;48.872;9.390;2023-01-01T10:39:06;10.20;;;5.60;;
53718;SDS011;39616;48.872;9.390;2023-01-01T10:41:36;10.70;;;6.05;;
53718;SDS011;39616;48.872;9.390;2023-01-01T10:44:06;27.45;;;17.40;;
53718;SDS011;39616;48.872;9.390;2023-01-01T10:46:39;7.80;;;2.63;;
53718;SDS011;39616;48.872;9.390;2023-01-01T10:49:13;4.72;;;2.15;;
53718;SDS011;39616;48.872;9.390;2023-01-01T10:51:46;4.40;;;1.35;;
53718;SDS011;39616;48.872;9.390;2023-01-01T10:54:34;5.95;;;3.80;;
53718;SDS011;39616;48.872;9.390;2023-01-01T10:57:14;9.75;;;3.20;;
53718;SDS011;39616;48.872;9.390;2023-01-01T10:59:49;2.50;;;1.42;;
53718;SDS011;39616;48.872;9.390;2023-01-01T11:02:23;2.80;;;1.55;;
53718;SDS011;39616;48.872;9.390;2023-01-01T11:05:11;3.78;;;1.30;;
53718;SDS011;39616;48.872;9.390;2023-01-01T11:07:46;3.58;;;1.25;;
53718;SDS011;39616;48.872;9.390;2023-01-01T11:10:18;3.28;;;1.30;;
53718;SDS011;39616;48.872;9.390;2023-01-01T11:12:50;4.00;;;1.38;;
53718;SDS011;39616;48.872;9.390;2023-01-01T11:15:32;7.05;;;1.70;;
53718;SDS011;39616;48.872;9.390;2023-01-01T11:18:12;7.00;;;3.65;;
53718;SDS011;39616;48.872;9.390;2023-01-01T11:20:49;5.25;;;2.25;;
53718;SDS011;39616;48.872;9.390;2023-01-01T11:23:37;2.85;;;1.70;;
53718;SDS011;39616;48.872;9.390;2023-01-01T11:29:00;2.53;;;1.05;;
53718;SDS011;39616;48.872;9.390;2023-01-01T11:31:37;1.98;;;1.05;;
53718;SDS011;39616;48.872;9.390;2023-01-01T11:34:42;4.03;;;1.00;;
53718;SDS011;39616;48.872;9.390;2023-01-01T11:39:40;2.97;;;1.33;;
53718;SDS011;39616;48.872;9.390;2023-01-01T11:42:20;2.65;;;1.08;;
53718;SDS011;39616;48.872;9.390;2023-01-01T11:44:53;2.45;;;1.10;;
53718;SDS011;39616;48.872;9.390;2023-01-01T11:47:28;5.45;;;1.15;;
53718;SDS011;39616;48.872;9.390;2023-01-01T11:52:46;7.20;;;1.67;;
53718;SDS011;39616;48.872;9.390;2023-01-01T11:55:38;3.22;;;1.10;;
53718;SDS011;39616;48.872;9.390;2023-01-01T11:58:16;3.60;;;1.08;;
53718;SDS011;39616;48.872;9.390;2023-01-01T12:00:53;5.10;;;0.93;;
53718;SDS011;39616;48.872;9.390;2023-01-01T12:03:43;1.80;;;1.02;;
53718;SDS011;39616;48.872;9.390;2023-01-01T12:09:29;3.25;;;1.30;;
53718;SDS011;39616;48.872;9.390;2023-01-01T12:12:11;2.72;;;1.00;;
53718;SDS011;39616;48.872;9.390;2023-01-01T12:17:37;7.35;;;1.20;;
53718;SDS011;39616;48.872;9.390;2023-01-01T12:23:07;4.35;;;0.90;;
53718;SDS011;39616;48.872;9.390;2023-01-01T12:25:40;4.72;;;1.00;;
53718;SDS011;39616;48.872;9.390;2023-01-01T12:33:34;2.75;;;0.90;;
53718;SDS011;39616;48.872;9.390;2023-01-01T12:44:42;4.00;;;0.95;;
53718;SDS011;39616;48.872;9.390;2023-01-01T12:47:41;3.42;;;1.10;;
53718;SDS011;39616;48.872;9.390;2023-01-01T12:50:36;6.32;;;1.00;;
53718;SDS011;39616;48.872;9.390;2023-01-01T12:53:20;3.70;;;1.17;;
53718;SDS011;39616;48.872;9.390;2023-01-01T12:58:56;4.63;;;1.30;;
53718;SDS011;39616;48.872;9.390;2023-01-01T13:01:31;3.33;;;1.10;;
53718;SDS011;39616;48.872;9.390;2023-01-01T13:06:55;2.65;;;0.90;;
53718;SDS011;39616;48.872;9.390;2023-01-01T13:09:33;3.42;;;0.90;;
53718;SDS011;39616;48.872;9.390;2023-01-01T13:12:07;4.57;;;1.00;;
53718;SDS011;39616;48.872;9.390;2023-01-01T13:14:42;2.92;;;1.08;;
53718;SDS011;39616;48.872;9.390;2023-01-01T13:17:26;6.40;;;1.10;;
53718;SDS011;39616;48.872;9.390;2023-01-01T13:20:00;3.25;;;0.98;;
53718;SDS011;39616;48.872;9.390;2023-01-01T13:22:46;3.28;;;0.95;;
53718;SDS011;39616;48.872;9.390;2023-01-01T13:25:19;4.57;;;1.45;;
53718;SDS011;39616;48.872;9.390;2023-01-01T13:30:47;4.70;;;1.10;;
53718;SDS011;39616;48.872;9.390;2023-01-01T13:38:48;5.40;;;1.00;;
53718;SDS011;39616;48.872;9.390;2023-01-01T14:03:12;3.97;;;1.10;;
53718;SDS011;39616;48.872;9.390;2023-01-01T14:05:53;2.90;;;0.90;;
53718;SDS011;39616;48.872;9.390;2023-01-01T14:08:29;3.22;;;1.10;;
53718;SDS011;39616;48.872;9.390;2023-01-01T14:11:18;3.33;;;1.13;;
53718;SDS011;39616;48.872;9.390;2023-01-01T14:13:52;2.60;;;1.25;;
53718;SDS011;39616;48.872;9.390;2023-01-01T14:16:23;5.00;;;1.20;;
53718;SDS011;39616;48.872;9.390;2023-01-01T14:18:57;5.28;;;1.45;;
53718;SDS011;39616;48.872;9.390;2023-01-01T14:21:30;4.07;;;1.20;;
53718;SDS011;39616;48.872;9.390;2023-01-01T14:24:02;6.10;;;1.30;;
53718;SDS011;39616;48.872;9.390;2023-01-01T14:26:36;6.90;;;1.48;;
53718;SDS011;39616;48.872;9.390;2023-01-01T14:29:08;3.13;;;1.10;;
53718;SDS011;39616;48.872;9.390;2023-01-01T14:31:46;2.38;;;0.90;;
53718;SDS011;39616;48.872;9.390;2023-01-01T14:36:58;3.33;;;1.20;;
53718;SDS011;39616;48.872;9.390;2023-01-01T14:39:31;5.82;;;1.80;;
53718;SDS011;39616;48.872;9.390;2023-01-01T14:42:09;3.28;;;1.40;;
53718;SDS011;39616;48.872;9.390;2023-01-01T14:44:43;4.60;;;1.48;;
53718;SDS011;39616;48.872;9.390;2023-01-01T14:47:33;3.15;;;1.17;;
53718;SDS011;39616;48.872;9.390;2023-01-01T14:52:38;3.30;;;1.08;;
53718;SDS011;39616;48.872;9.390;2023-01-01T14:55:14;4.80;;;1.10;;
53718;SDS011;39616;48.872;9.390;2023-01-01T14:57:49;3.70;;;1.48;;
53718;SDS011;39616;48.872;9.390;2023-01-01T15:00:27;4.85;;;1.20;;
53718;SDS011;39616;48.872;9.390;2023-01-01T15:03:10;4.75;;;1.20;;
53718;SDS011;39616;48.872;9.390;2023-01-01T15:05:43;6.38;;;1.38;;
53718;SDS011;39616;48.872;9.390;2023-01-01T15:08:20;3.13;;;1.33;;
53718;SDS011;39616;48.872;9.390;2023-01-01T15:10:52;1.77;;;1.15;;
53718;SDS011;39616;48.872;9.390;2023-01-01T15:13:24;4.32;;;1.40;;
53718;SDS011;39616;48.872;9.390;2023-01-01T15:16:08;5.18;;;1.55;;
53718;SDS011;39616;48.872;9.390;2023-01-01T15:18:48;8.40;;;1.77;;
53718;SDS011;39616;48.872;9.390;2023-01-01T15:24:16;4.72;;;2.00;;
53718;SDS011;39616;48.872;9.390;2023-01-01T15:26:56;6.07;;;1.50;;
53718;SDS011;39616;48.872;9.390;2023-01-01T15:29:32;5.30;;;1.50;;
53718;SDS011;39616;48.872;9.390;2023-01-01T15:32:06;3.05;;;1.70;;
53718;SDS011;39616;48.872;9.390;2023-01-01T15:34:43;5.50;;;1.60;;
53718;SDS011;39616;48.872;9.390;2023-01-01T15:37:22;6.35;;;1.50;;
53718;SDS011;39616;48.872;9.390;2023-01-01T15:43:04;7.90;;;2.00;;
53718;SDS011;39616;48.872;9.390;2023-01-01T15:45:49;10.73;;;3.80;;
53718;SDS011;39616;48.872;9.390;2023-01-01T15:50:59;4.93;;;1.95;;
53718;SDS011;39616;48.872;9.390;2023-01-01T15:53:55;5.55;;;2.22;;
53718;SDS011;39616;48.872;9.390;2023-01-01T15:56:31;4.60;;;2.15;;
53718;SDS011;39616;48.872;9.390;2023-01-01T16:02:06;5.95;;;1.60;;
53718;SDS011;39616;48.872;9.390;2023-01-01T16:04:45;6.07;;;1.80;;
53718;SDS011;39616;48.872;9.390;2023-01-01T16:07:17;5.82;;;1.65;;
53718;SDS011;39616;48.872;9.390;2023-01-01T16:09:52;4.47;;;1.65;;
53718;SDS011;39616;48.872;9.390;2023-01-01T16:12:23;5.95;;;1.50;;
53718;SDS011;39616;48.872;9.390;2023-01-01T16:14:54;7.05;;;2.10;;
53718;SDS011;39616;48.872;9.390;2023-01-01T16:17:24;13.13;;;2.30;;
53718;SDS011;39616;48.872;9.390;2023-01-01T16:19:54;12.75;;;2.95;;
53718;SDS011;39616;48.872;9.390;2023-01-01T16:22:25;7.97;;;2.70;;
53718;SDS011;39616;48.872;9.390;2023-01-01T16:24:55;6.28;;;2.85;;
53718;SDS011;39616;48.872;9.390;2023-01-01T16:27:25;9.73;;;3.38;;
53718;SDS011;39616;48.872;9.390;2023-01-01T16:29:56;3.50;;;2.45;;
53718;SDS011;39616;48.872;9.390;2023-01-01T16:32:26;5.05;;;2.88;;
53718;SDS011;39616;48.872;9.390;2023-01-01T16:34:56;6.45;;;2.80;;
53718;SDS011;39616;48.872;9.390;2023-01-01T16:37:26;6.95;;;2.08;;
53718;SDS011;39616;48.872;9.390;2023-01-01T16:39:57;5.40;;;2.45;;
53718;SDS011;39616;48.872;9.390;2023-01-01T16:42:27;4.97;;;2.00;;
53718;SDS011;39616;48.872;9.390;2023-01-01T16:44:57;7.93;;;2.58;;
53718;SDS011;39616;48.872;9.390;2023-01-01T16:47:28;5.65;;;2.55;;
53718;SDS011;39616;48.872;9.390;2023-01-01T16:49:58;4.63;;;2.30;;
53718;SDS011;39616;48.872;9.390;2023-01-01T16:52:28;7.25;;;3.55;;
53718;SDS011;39616;48.872;9.390;2023-01-01T16:54:59;11.57;;;3.72;;
53718;SDS011;39616;48.872;9.390;2023-01-01T16:57:29;16.85;;;3.90;;
53718;SDS011;39616;48.872;9.390;2023-01-01T17:00:01;8.90;;;3.92;;
53718;SDS011;39616;48.872;9.390;2023-01-01T17:02:31;5.63;;;3.60;;
53718;SDS011;39616;48.872;9.390;2023-01-01T17:05:02;10.25;;;3.03;;
53718;SDS011;39616;48.872;9.390;2023-01-01T17:07:32;8.52;;;3.30;;
53718;SDS011;39616;48.872;9.390;2023-01-01T17:10:03;7.95;;;2.95;;
53718;SDS011;39616;48.872;9.390;2023-01-01T17:12:33;7.60;;;3.20;;
53718;SDS011;39616;48.872;9.390;2023-01-01T17:15:04;9.82;;;3.45;;
53718;SDS011;39616;48.872;9.390;2023-01-01T17:17:35;5.20;;;2.88;;
53718;SDS011;39616;48.872;9.390;2023-01-01T17:20:05;7.85;;;3.53;;
53718;SDS011;39616;48.872;9.390;2023-01-01T17:22:36;7.45;;;3.10;;
53718;SDS011;39616;48.872;9.390;2023-01-01T17:25:10;6.82;;;3.20;;
53718;SDS011;39616;48.872;9.390;2023-01-01T17:27:40;11.88;;;3.83;;
53718;SDS011;39616;48.872;9.390;2023-01-01T17:30:11;8.75;;;3.70;;
53718;SDS011;39616;48.872;9.390;2023-01-01T17:32:42;7.10;;;3.40;;
53718;SDS011;39616;48.872;9.390;2023-01-01T17:35:12;9.32;;;3.97;;